X  CloseMetar Aviation Weather Data     LEVC Valencia

Temperatura

10°C Temperatura

10°C Punto de rocío

100% Humedad



Viento

10 KM/H

 6 MPH

 3 M/S

 5 KTS



300°
WNW
Condiciones actuales

Parcialmente nublado Parcialmente nublado
Presión 997.92 (hPa) - 29.47 (in)
Visibilidad 6.2 (mi) - 10 (km)
Aeropuerto
Airport-code LEVC

localidad Valencia 18 (km)

Metar:
LEVC 230530Z 30005KT 260V320 9999 FEW040 10/10 Q0998 NOSIG

Hora: 23-04-2019 07:30